sensor_id;sensor_type;location;lat;lon;timestamp;pressure;altitude;pressure_sealevel;temperature;humidity
46211;BME280;52144;48.040;-1.594;2023-06-19T00:01:29;100647.16;;;19.56;100.00
46211;BME280;52144;48.040;-1.594;2023-06-19T00:03:57;100642.91;;;19.42;99.39
46211;BME280;52144;48.040;-1.594;2023-06-19T00:06:25;100647.19;;;19.45;100.00
46211;BME280;52144;48.040;-1.594;2023-06-19T00:08:52;100644.75;;;19.42;100.00
46211;BME280;52144;48.040;-1.594;2023-06-19T00:11:20;100642.69;;;19.67;100.00
46211;BME280;52144;48.040;-1.594;2023-06-19T00:13:49;100656.84;;;19.59;97.83
46211;BME280;52144;48.040;-1.594;2023-06-19T00:16:17;100657.78;;;19.37;99.22
46211;BME280;52144;48.040;-1.594;2023-06-19T00:18:47;100658.19;;;19.53;100.00
46211;BME280;52144;48.040;-1.594;2023-06-19T00:21:14;100651.31;;;19.60;100.00
46211;BME280;52144;48.040;-1.594;2023-06-19T00:23:42;100654.78;;;19.51;100.00
46211;BME280;52144;48.040;-1.594;2023-06-19T00:26:10;100656.13;;;19.45;100.00
46211;BME280;52144;48.040;-1.594;2023-06-19T00:28:41;100651.44;;;19.27;100.00
46211;BME280;52144;48.040;-1.594;2023-06-19T00:31:10;100656.59;;;19.30;99.70
46211;BME280;52144;48.040;-1.594;2023-06-19T00:33:39;100651.13;;;19.09;100.00
46211;BME280;52144;48.040;-1.594;2023-06-19T00:36:10;100655.03;;;19.16;100.00
46211;BME280;52144;48.040;-1.594;2023-06-19T00:38:38;100650.38;;;19.07;100.00
46211;BME280;52144;48.040;-1.594;2023-06-19T00:41:06;100652.66;;;19.34;100.00
46211;BME280;52144;48.040;-1.594;2023-06-19T00:43:34;100655.72;;;19.29;99.56
46211;BME280;52144;48.040;-1.594;2023-06-19T00:46:03;100648.00;;;19.24;100.00
46211;BME280;52144;48.040;-1.594;2023-06-19T00:48:32;100654.09;;;19.38;100.00
46211;BME280;52144;48.040;-1.594;2023-06-19T00:51:01;100658.59;;;19.16;100.00
46211;BME280;52144;48.040;-1.594;2023-06-19T00:53:32;100658.47;;;19.18;100.00
46211;BME280;52144;48.040;-1.594;2023-06-19T00:56:01;100663.75;;;19.19;99.24
46211;BME280;52144;48.040;-1.594;2023-06-19T00:58:31;100663.03;;;19.17;99.46
46211;BME280;52144;48.040;-1.594;2023-06-19T01:00:59;100666.97;;;19.13;100.00
46211;BME280;52144;48.040;-1.594;2023-06-19T01:03:35;100659.06;;;19.21;100.00
46211;BME280;52144;48.040;-1.594;2023-06-19T01:06:05;100664.81;;;19.28;100.00
46211;BME280;52144;48.040;-1.594;2023-06-19T01:08:43;100666.81;;;19.47;100.00
46211;BME280;52144;48.040;-1.594;2023-06-19T01:11:17;100677.69;;;19.36;100.00
46211;BME280;52144;48.040;-1.594;2023-06-19T01:13:55;100686.69;;;19.57;100.00
46211;BME280;52144;48.040;-1.594;2023-06-19T01:16:26;100679.81;;;19.53;100.00
46211;BME280;52144;48.040;-1.594;2023-06-19T01:18:55;100687.91;;;19.64;100.00
46211;BME280;52144;48.040;-1.594;2023-06-19T01:21:23;100688.84;;;19.75;100.00
46211;BME280;52144;48.040;-1.594;2023-06-19T01:23:52;100686.69;;;19.57;100.00
46211;BME280;52144;48.040;-1.594;2023-06-19T01:26:23;100694.50;;;19.72;100.00
46211;BME280;52144;48.040;-1.594;2023-06-19T01:28:54;100693.09;;;19.56;100.00
46211;BME280;52144;48.040;-1.594;2023-06-19T01:31:26;100696.25;;;19.61;100.00
46211;BME280;52144;48.040;-1.594;2023-06-19T01:33:57;100700.91;;;19.59;100.00
46211;BME280;52144;48.040;-1.594;2023-06-19T01:36:25;100699.00;;;19.50;100.00
46211;BME280;52144;48.040;-1.594;2023-06-19T01:38:57;100709.66;;;19.52;100.00
46211;BME280;52144;48.040;-1.594;2023-06-19T01:41:25;100709.03;;;19.59;100.00
46211;BME280;52144;48.040;-1.594;2023-06-19T01:43:54;100711.53;;;19.51;100.00
46211;BME280;52144;48.040;-1.594;2023-06-19T01:46:22;100722.44;;;19.50;100.00
46211;BME280;52144;48.040;-1.594;2023-06-19T01:48:50;100717.25;;;19.58;100.00
46211;BME280;52144;48.040;-1.594;2023-06-19T01:51:18;100706.84;;;19.53;100.00
46211;BME280;52144;48.040;-1.594;2023-06-19T01:53:46;100708.31;;;19.57;100.00
46211;BME280;52144;48.040;-1.594;2023-06-19T01:56:15;100705.38;;;19.49;100.00
46211;BME280;52144;48.040;-1.594;2023-06-19T01:58:43;100689.53;;;19.23;100.00
46211;BME280;52144;48.040;-1.594;2023-06-19T02:01:10;100691.22;;;19.24;100.00
46211;BME280;52144;48.040;-1.594;2023-06-19T02:03:38;100685.13;;;19.11;100.00
46211;BME280;52144;48.040;-1.594;2023-06-19T02:06:06;100683.63;;;19.18;100.00
46211;BME280;52144;48.040;-1.594;2023-06-19T02:08:34;100683.63;;;19.18;100.00
46211;BME280;52144;48.040;-1.594;2023-06-19T02:11:02;100682.66;;;19.19;100.00
46211;BME280;52144;48.040;-1.594;2023-06-19T02:13:31;100672.69;;;19.20;100.00
46211;BME280;52144;48.040;-1.594;2023-06-19T02:15:59;100671.56;;;19.34;100.00
46211;BME280;52144;48.040;-1.594;2023-06-19T02:18:27;100665.28;;;19.33;100.00
46211;BME280;52144;48.040;-1.594;2023-06-19T02:20:54;100666.88;;;19.36;100.00
46211;BME280;52144;48.040;-1.594;2023-06-19T02:23:22;100662.13;;;19.28;100.00
46211;BME280;52144;48.040;-1.594;2023-06-19T02:25:50;100663.69;;;19.31;100.00
46211;BME280;52144;48.040;-1.594;2023-06-19T02:28:18;100659.31;;;19.18;100.00
46211;BME280;52144;48.040;-1.594;2023-06-19T02:30:47;100657.09;;;19.23;100.00
46211;BME280;52144;48.040;-1.594;2023-06-19T02:33:15;100645.94;;;19.17;100.00
46211;BME280;52144;48.040;-1.594;2023-06-19T02:35:43;100646.31;;;19.12;100.00
46211;BME280;52144;48.040;-1.594;2023-06-19T02:38:11;100649.41;;;19.08;100.00
46211;BME280;52144;48.040;-1.594;2023-06-19T02:40:40;100655.03;;;19.16;100.00
46211;BME280;52144;48.040;-1.594;2023-06-19T02:43:08;100653.69;;;19.21;100.00
46211;BME280;52144;48.040;-1.594;2023-06-19T02:45:35;100651.41;;;18.94;100.00
46211;BME280;52144;48.040;-1.594;2023-06-19T02:48:05;100652.75;;;18.89;100.00
46211;BME280;52144;48.040;-1.594;2023-06-19T02:50:32;100653.81;;;19.09;100.00
46211;BME280;52144;48.040;-1.594;2023-06-19T02:53:00;100662.28;;;19.15;100.00
46211;BME280;52144;48.040;-1.594;2023-06-19T02:55:28;100655.34;;;18.90;100.00
46211;BME280;52144;48.040;-1.594;2023-06-19T02:57:56;100660.34;;;19.06;100.00
46211;BME280;52144;48.040;-1.594;2023-06-19T03:00:24;100660.53;;;19.26;100.00
46211;BME280;52144;48.040;-1.594;2023-06-19T03:02:53;100651.84;;;19.11;100.00
46211;BME280;52144;48.040;-1.594;2023-06-19T03:05:23;100655.16;;;19.03;100.00
46211;BME280;52144;48.040;-1.594;2023-06-19T03:07:53;100644.25;;;19.04;100.00
46211;BME280;52144;48.040;-1.594;2023-06-19T03:10:21;100651.72;;;19.12;100.00
46211;BME280;52144;48.040;-1.594;2023-06-19T03:12:49;100658.19;;;19.21;100.00
46211;BME280;52144;48.040;-1.594;2023-06-19T03:15:17;100660.53;;;19.26;100.00
46211;BME280;52144;48.040;-1.594;2023-06-19T03:17:45;100659.59;;;19.15;100.00
46211;BME280;52144;48.040;-1.594;2023-06-19T03:20:12;100658.34;;;19.19;100.00
46211;BME280;52144;48.040;-1.594;2023-06-19T03:22:42;100657.75;;;19.04;100.00
46211;BME280;52144;48.040;-1.594;2023-06-19T03:25:09;100645.03;;;18.95;100.00
46211;BME280;52144;48.040;-1.594;2023-06-19T03:27:37;100654.94;;;18.95;100.00
46211;BME280;52144;48.040;-1.594;2023-06-19T03:30:06;100652.00;;;19.09;100.00
46211;BME280;52144;48.040;-1.594;2023-06-19T03:32:34;100647.56;;;19.08;100.00
46211;BME280;52144;48.040;-1.594;2023-06-19T03:35:03;100654.44;;;19.44;100.00
46211;BME280;52144;48.040;-1.594;2023-06-19T03:37:31;100655.50;;;19.53;100.00
46211;BME280;52144;48.040;-1.594;2023-06-19T03:40:01;100648.72;;;19.59;100.00
46211;BME280;52144;48.040;-1.594;2023-06-19T03:42:31;100653.00;;;19.61;100.00
46211;BME280;52144;48.040;-1.594;2023-06-19T03:44:58;100658.41;;;19.73;100.00
46211;BME280;52144;48.040;-1.594;2023-06-19T03:47:27;100661.59;;;19.67;100.00
46211;BME280;52144;48.040;-1.594;2023-06-19T03:49:54;100659.88;;;19.65;100.00
46211;BME280;52144;48.040;-1.594;2023-06-19T03:52:33;100662.56;;;19.77;100.00
46211;BME280;52144;48.040;-1.594;2023-06-19T03:55:02;100661.69;;;19.76;100.00
46211;BME280;52144;48.040;-1.594;2023-06-19T03:57:30;100659.00;;;19.65;100.00
46211;BME280;52144;48.040;-1.594;2023-06-19T03:59:58;100658.59;;;19.81;100.00
46211;BME280;52144;48.040;-1.594;2023-06-19T04:02:25;100660.38;;;19.71;100.00
46211;BME280;52144;48.040;-1.594;2023-06-19T04:04:54;100665.03;;;19.69;100.00
46211;BME280;52144;48.040;-1.594;2023-06-19T04:07:22;100664.53;;;19.75;100.00
46211;BME280;52144;48.040;-1.594;2023-06-19T04:09:49;100671.25;;;19.80;100.00
46211;BME280;52144;48.040;-1.594;2023-06-19T04:12:19;100664.84;;;19.81;100.00
46211;BME280;52144;48.040;-1.594;2023-06-19T04:14:46;100659.78;;;19.88;100.00
46211;BME280;52144;48.040;-1.594;2023-06-19T04:17:14;100655.81;;;19.92;100.00
46211;BME280;52144;48.040;-1.594;2023-06-19T04:19:42;100661.22;;;19.92;100.00
46211;BME280;52144;48.040;-1.594;2023-06-19T04:22:10;100664.59;;;19.84;100.00
46211;BME280;52144;48.040;-1.594;2023-06-19T04:24:38;100671.31;;;19.90;100.00
46211;BME280;52144;48.040;-1.594;2023-06-19T04:27:06;100664.81;;;19.93;100.00
46211;BME280;52144;48.040;-1.594;2023-06-19T04:29:36;100662.47;;;19.88;100.00
46211;BME280;52144;48.040;-1.594;2023-06-19T04:32:05;100677.06;;;19.97;100.00
46211;BME280;52144;48.040;-1.594;2023-06-19T04:34:38;100671.78;;;19.95;100.00
46211;BME280;52144;48.040;-1.594;2023-06-19T04:37:06;100666.78;;;19.91;100.00
46211;BME280;52144;48.040;-1.594;2023-06-19T04:39:34;100670.41;;;20.01;100.00
46211;BME280;52144;48.040;-1.594;2023-06-19T04:42:01;100679.63;;;19.98;100.00
46211;BME280;52144;48.040;-1.594;2023-06-19T04:44:29;100676.19;;;19.96;100.00
46211;BME280;52144;48.040;-1.594;2023-06-19T04:47:01;100682.19;;;19.79;100.00
46211;BME280;52144;48.040;-1.594;2023-06-19T04:49:29;100685.19;;;19.97;100.00
46211;BME280;52144;48.040;-1.594;2023-06-19T04:51:57;100677.38;;;20.03;100.00
46211;BME280;52144;48.040;-1.594;2023-06-19T04:54:25;100682.81;;;20.03;100.00
46211;BME280;52144;48.040;-1.594;2023-06-19T04:56:53;100684.97;;;20.10;100.00
46211;BME280;52144;48.040;-1.594;2023-06-19T04:59:21;100676.56;;;20.13;100.00
46211;BME280;52144;48.040;-1.594;2023-06-19T05:01:48;100678.75;;;20.19;100.00
46211;BME280;52144;48.040;-1.594;2023-06-19T05:04:21;100669.72;;;20.09;100.00
46211;BME280;52144;48.040;-1.594;2023-06-19T05:06:49;100670.72;;;20.08;100.00
46211;BME280;52144;48.040;-1.594;2023-06-19T05:09:17;100670.09;;;20.25;100.00
46211;BME280;52144;48.040;-1.594;2023-06-19T05:11:46;100675.78;;;20.22;100.00
46211;BME280;52144;48.040;-1.594;2023-06-19T05:14:14;100674.97;;;20.31;100.00
46211;BME280;52144;48.040;-1.594;2023-06-19T05:16:42;100674.31;;;20.39;100.00
46211;BME280;52144;48.040;-1.594;2023-06-19T05:19:10;100668.81;;;20.50;100.00
46211;BME280;52144;48.040;-1.594;2023-06-19T05:21:39;100673.31;;;20.40;100.00
46211;BME280;52144;48.040;-1.594;2023-06-19T05:24:07;100666.41;;;20.26;100.00
46211;BME280;52144;48.040;-1.594;2023-06-19T05:26:34;100661.78;;;20.17;100.00
46211;BME280;52144;48.040;-1.594;2023-06-19T05:29:02;100662.69;;;20.27;100.00
46211;BME280;52144;48.040;-1.594;2023-06-19T05:31:30;100663.25;;;20.21;100.00
46211;BME280;52144;48.040;-1.594;2023-06-19T05:33:58;100676.69;;;20.32;100.00
46211;BME280;52144;48.040;-1.594;2023-06-19T05:36:26;100672.78;;;20.46;100.00
46211;BME280;52144;48.040;-1.594;2023-06-19T05:38:55;100672.25;;;20.52;100.00
46211;BME280;52144;48.040;-1.594;2023-06-19T05:41:22;100669.47;;;20.42;100.00
46211;BME280;52144;48.040;-1.594;2023-06-19T05:43:50;100677.47;;;20.44;100.00
46211;BME280;52144;48.040;-1.594;2023-06-19T05:46:18;100681.94;;;20.55;100.00
46211;BME280;52144;48.040;-1.594;2023-06-19T05:48:47;100690.25;;;20.63;100.00
46211;BME280;52144;48.040;-1.594;2023-06-19T05:51:14;100687.00;;;20.69;100.00
46211;BME280;52144;48.040;-1.594;2023-06-19T05:53:42;100689.47;;;20.82;100.00
46211;BME280;52144;48.040;-1.594;2023-06-19T05:56:11;100688.88;;;20.69;100.00
46211;BME280;52144;48.040;-1.594;2023-06-19T05:58:39;100695.47;;;20.86;100.00
46211;BME280;52144;48.040;-1.594;2023-06-19T06:01:07;100693.06;;;20.92;100.00
46211;BME280;52144;48.040;-1.594;2023-06-19T06:03:36;100693.66;;;20.96;100.00
46211;BME280;52144;48.040;-1.594;2023-06-19T06:06:04;100683.38;;;20.90;100.00
46211;BME280;52144;48.040;-1.594;2023-06-19T06:08:32;100681.50;;;20.90;100.00
46211;BME280;52144;48.040;-1.594;2023-06-19T06:10:59;100687.25;;;20.97;100.00
46211;BME280;52144;48.040;-1.594;2023-06-19T06:13:29;100676.34;;;20.77;100.00
46211;BME280;52144;48.040;-1.594;2023-06-19T06:15:56;100679.91;;;20.68;100.00
46211;BME280;52144;48.040;-1.594;2023-06-19T06:18:24;100692.63;;;20.87;100.00
46211;BME280;52144;48.040;-1.594;2023-06-19T06:20:52;100699.38;;;21.12;100.00
46211;BME280;52144;48.040;-1.594;2023-06-19T06:23:20;100699.78;;;20.98;100.00
46211;BME280;52144;48.040;-1.594;2023-06-19T06:25:48;100694.03;;;21.32;100.00
46211;BME280;52144;48.040;-1.594;2023-06-19T06:28:15;100701.06;;;21.54;100.00
46211;BME280;52144;48.040;-1.594;2023-06-19T06:30:45;100698.06;;;21.76;100.00
46211;BME280;52144;48.040;-1.594;2023-06-19T06:33:13;100702.91;;;21.82;98.57
46211;BME280;52144;48.040;-1.594;2023-06-19T06:35:41;100703.31;;;21.97;99.57
46211;BME280;52144;48.040;-1.594;2023-06-19T06:38:09;100698.22;;;21.94;97.94
46211;BME280;52144;48.040;-1.594;2023-06-19T06:40:37;100700.16;;;22.02;98.60
46211;BME280;52144;48.040;-1.594;2023-06-19T06:43:04;100705.91;;;22.09;98.91
46211;BME280;52144;48.040;-1.594;2023-06-19T06:45:32;100704.91;;;21.90;98.39
46211;BME280;52144;48.040;-1.594;2023-06-19T06:48:02;100705.75;;;22.00;100.00
46211;BME280;52144;48.040;-1.594;2023-06-19T06:50:30;100712.75;;;22.13;100.00
46211;BME280;52144;48.040;-1.594;2023-06-19T06:52:58;100711.16;;;22.30;99.17
46211;BME280;52144;48.040;-1.594;2023-06-19T06:55:26;100713.47;;;21.66;98.36
46211;BME280;52144;48.040;-1.594;2023-06-19T06:57:54;100720.88;;;21.44;100.00
46211;BME280;52144;48.040;-1.594;2023-06-19T07:00:22;100710.63;;;21.87;100.00
46211;BME280;52144;48.040;-1.594;2023-06-19T07:02:50;100715.25;;;22.43;100.00
46211;BME280;52144;48.040;-1.594;2023-06-19T07:05:20;100721.16;;;22.76;96.49
46211;BME280;52144;48.040;-1.594;2023-06-19T07:07:47;100719.13;;;22.78;96.63
46211;BME280;52144;48.040;-1.594;2023-06-19T07:10:15;100726.97;;;22.81;98.23
46211;BME280;52144;48.040;-1.594;2023-06-19T07:12:47;100728.47;;;22.94;93.87
46211;BME280;52144;48.040;-1.594;2023-06-19T07:15:15;100722.59;;;23.08;93.06
46211;BME280;52144;48.040;-1.594;2023-06-19T07:17:43;100724.88;;;23.13;91.88
46211;BME280;52144;48.040;-1.594;2023-06-19T07:20:11;100733.41;;;23.18;94.89
46211;BME280;52144;48.040;-1.594;2023-06-19T07:22:41;100721.44;;;22.73;94.09
46211;BME280;52144;48.040;-1.594;2023-06-19T07:25:10;100727.00;;;22.15;99.72
46211;BME280;52144;48.040;-1.594;2023-06-19T07:27:39;100734.72;;;22.76;97.09
46211;BME280;52144;48.040;-1.594;2023-06-19T07:30:08;100738.41;;;23.22;93.93
46211;BME280;52144;48.040;-1.594;2023-06-19T07:32:40;100734.19;;;23.00;92.06
46211;BME280;52144;48.040;-1.594;2023-06-19T07:35:08;100737.47;;;22.67;97.23
46211;BME280;52144;48.040;-1.594;2023-06-19T07:37:37;100734.19;;;23.00;97.63
46211;BME280;52144;48.040;-1.594;2023-06-19T07:40:08;100736.53;;;23.23;96.18
46211;BME280;52144;48.040;-1.594;2023-06-19T07:42:36;100730.66;;;23.46;94.05
46211;BME280;52144;48.040;-1.594;2023-06-19T07:45:05;100730.28;;;23.58;90.93
46211;BME280;52144;48.040;-1.594;2023-06-19T07:47:33;100739.38;;;23.49;91.49
46211;BME280;52144;48.040;-1.594;2023-06-19T07:50:01;100732.06;;;23.68;91.21
46211;BME280;52144;48.040;-1.594;2023-06-19T07:52:28;100741.94;;;23.69;89.55
46211;BME280;52144;48.040;-1.594;2023-06-19T07:54:57;100741.03;;;23.78;91.12
46211;BME280;52144;48.040;-1.594;2023-06-19T07:57:26;100742.66;;;23.89;90.04
46211;BME280;52144;48.040;-1.594;2023-06-19T07:59:54;100745.16;;;23.82;88.32
46211;BME280;52144;48.040;-1.594;2023-06-19T08:02:22;100745.16;;;23.82;90.28
46211;BME280;52144;48.040;-1.594;2023-06-19T08:04:50;100744.59;;;23.96;87.23
46211;BME280;52144;48.040;-1.594;2023-06-19T08:07:18;100750.03;;;24.14;90.36
46211;BME280;52144;48.040;-1.594;2023-06-19T08:09:46;100726.41;;;23.97;90.41
46211;BME280;52144;48.040;-1.594;2023-06-19T08:12:31;100728.00;;;24.08;88.91
46211;BME280;52144;48.040;-1.594;2023-06-19T08:14:58;100727.44;;;23.96;90.08
46211;BME280;52144;48.040;-1.594;2023-06-19T08:17:26;100729.50;;;23.66;92.36
46211;BME280;52144;48.040;-1.594;2023-06-19T08:19:54;100722.41;;;24.09;88.88
46211;BME280;52144;48.040;-1.594;2023-06-19T08:22:22;100709.56;;;24.46;89.43
46211;BME280;52144;48.040;-1.594;2023-06-19T08:24:51;100709.34;;;24.57;87.94
46211;BME280;52144;48.040;-1.594;2023-06-19T08:27:19;100705.03;;;24.28;88.60
46211;BME280;52144;48.040;-1.594;2023-06-19T08:29:48;100710.09;;;24.23;89.57
46211;BME280;52144;48.040;-1.594;2023-06-19T08:32:16;100713.13;;;24.64;84.64
46211;BME280;52144;48.040;-1.594;2023-06-19T08:34:44;100712.47;;;24.70;83.02
46211;BME280;52144;48.040;-1.594;2023-06-19T08:37:11;100707.81;;;24.62;85.74
46211;BME280;52144;48.040;-1.594;2023-06-19T08:39:39;100704.66;;;24.75;84.39
46211;BME280;52144;48.040;-1.594;2023-06-19T08:42:07;100706.78;;;24.90;81.97
46211;BME280;52144;48.040;-1.594;2023-06-19T08:44:36;100707.78;;;24.89;85.42
46211;BME280;52144;48.040;-1.594;2023-06-19T08:47:07;100706.47;;;25.01;84.44
46211;BME280;52144;48.040;-1.594;2023-06-19T08:49:35;100712.72;;;24.51;85.60
46211;BME280;52144;48.040;-1.594;2023-06-19T08:52:03;100711.19;;;24.91;80.15
46211;BME280;52144;48.040;-1.594;2023-06-19T08:54:32;100711.34;;;25.23;81.62
46211;BME280;52144;48.040;-1.594;2023-06-19T08:57:00;100715.47;;;25.52;81.11
46211;BME280;52144;48.040;-1.594;2023-06-19T08:59:30;100720.59;;;25.47;80.45
46211;BME280;52144;48.040;-1.594;2023-06-19T09:01:58;100710.22;;;25.51;79.58
46211;BME280;52144;48.040;-1.594;2023-06-19T09:04:27;100709.69;;;25.47;77.78
46211;BME280;52144;48.040;-1.594;2023-06-19T09:06:59;100707.66;;;25.66;78.79
46211;BME280;52144;48.040;-1.594;2023-06-19T09:09:27;100714.19;;;25.73;77.70
46211;BME280;52144;48.040;-1.594;2023-06-19T09:12:00;100723.22;;;25.73;78.05
46211;BME280;52144;48.040;-1.594;2023-06-19T09:14:32;100719.97;;;25.70;79.31
46211;BME280;52144;48.040;-1.594;2023-06-19T09:17:01;100709.56;;;25.73;79.30
46211;BME280;52144;48.040;-1.594;2023-06-19T09:19:31;100707.50;;;25.67;79.31
46211;BME280;52144;48.040;-1.594;2023-06-19T09:22:02;100700.16;;;25.59;77.63
46211;BME280;52144;48.040;-1.594;2023-06-19T09:24:33;100697.50;;;25.17;77.57
46211;BME280;52144;48.040;-1.594;2023-06-19T09:27:06;100694.91;;;25.15;81.98
46211;BME280;52144;48.040;-1.594;2023-06-19T09:29:36;100697.41;;;25.43;77.27
46211;BME280;52144;48.040;-1.594;2023-06-19T09:32:14;100702.75;;;25.69;72.38
46211;BME280;52144;48.040;-1.594;2023-06-19T09:34:44;100701.53;;;25.80;73.13
46211;BME280;52144;48.040;-1.594;2023-06-19T09:37:11;100693.88;;;25.67;77.65
46211;BME280;52144;48.040;-1.594;2023-06-19T09:39:41;100703.63;;;25.94;72.24
46211;BME280;52144;48.040;-1.594;2023-06-19T09:42:09;100703.44;;;26.12;73.39
46211;BME280;52144;48.040;-1.594;2023-06-19T09:44:40;100694.31;;;26.53;72.88
46211;BME280;52144;48.040;-1.594;2023-06-19T09:47:15;100696.19;;;26.69;72.52
46211;BME280;52144;48.040;-1.594;2023-06-19T09:49:49;100698.38;;;26.73;73.80
46211;BME280;52144;48.040;-1.594;2023-06-19T09:52:18;100692.81;;;26.58;72.96
46211;BME280;52144;48.040;-1.594;2023-06-19T09:54:50;100690.22;;;26.57;70.27
46211;BME280;52144;48.040;-1.594;2023-06-19T09:57:18;100696.94;;;25.89;72.85
46211;BME280;52144;48.040;-1.594;2023-06-19T09:59:47;100696.75;;;26.31;70.03
46211;BME280;52144;48.040;-1.594;2023-06-19T10:02:16;100692.25;;;26.55;68.54
46211;BME280;52144;48.040;-1.594;2023-06-19T10:04:46;100695.59;;;26.26;69.80
46211;BME280;52144;48.040;-1.594;2023-06-19T10:07:17;100700.00;;;26.27;68.95
46211;BME280;52144;48.040;-1.594;2023-06-19T10:10:01;100690.31;;;26.08;67.16
46211;BME280;52144;48.040;-1.594;2023-06-19T10:12:37;100698.16;;;25.94;69.36
46211;BME280;52144;48.040;-1.594;2023-06-19T10:15:10;100693.19;;;26.22;69.27
46211;BME280;52144;48.040;-1.594;2023-06-19T10:17:43;100682.38;;;26.46;68.00
46211;BME280;52144;48.040;-1.594;2023-06-19T10:20:21;100687.66;;;26.64;65.12
46211;BME280;52144;48.040;-1.594;2023-06-19T10:22:59;100682.44;;;26.85;63.63
46211;BME280;52144;48.040;-1.594;2023-06-19T10:25:30;100683.84;;;27.12;65.65
46211;BME280;52144;48.040;-1.594;2023-06-19T10:27:59;100677.59;;;27.35;64.01
46211;BME280;52144;48.040;-1.594;2023-06-19T10:30:27;100670.44;;;27.34;66.42
46211;BME280;52144;48.040;-1.594;2023-06-19T10:32:56;100660.38;;;26.87;65.31
46211;BME280;52144;48.040;-1.594;2023-06-19T10:35:24;100660.41;;;27.18;67.54
46211;BME280;52144;48.040;-1.594;2023-06-19T10:37:52;100655.03;;;27.33;66.19
46211;BME280;52144;48.040;-1.594;2023-06-19T10:40:21;100655.63;;;27.43;65.88
46211;BME280;52144;48.040;-1.594;2023-06-19T10:42:49;100655.59;;;27.20;64.80
46211;BME280;52144;48.040;-1.594;2023-06-19T10:45:17;100651.53;;;27.16;66.76
46211;BME280;52144;48.040;-1.594;2023-06-19T10:47:46;100652.53;;;27.23;67.21
46211;BME280;52144;48.040;-1.594;2023-06-19T10:50:14;100651.66;;;26.91;63.66
46211;BME280;52144;48.040;-1.594;2023-06-19T10:52:43;100650.13;;;26.89;66.96
46211;BME280;52144;48.040;-1.594;2023-06-19T10:55:12;100641.91;;;26.97;64.29
46211;BME280;52144;48.040;-1.594;2023-06-19T10:57:44;100635.34;;;27.06;61.66
46211;BME280;52144;48.040;-1.594;2023-06-19T11:00:22;100635.25;;;27.22;60.27
46211;BME280;52144;48.040;-1.594;2023-06-19T11:02:51;100640.69;;;27.31;63.07
46211;BME280;52144;48.040;-1.594;2023-06-19T11:05:20;100642.06;;;27.50;62.07
46211;BME280;52144;48.040;-1.594;2023-06-19T11:07:53;100641.34;;;27.79;64.18
46211;BME280;52144;48.040;-1.594;2023-06-19T11:10:23;100627.72;;;28.09;63.23
46211;BME280;52144;48.040;-1.594;2023-06-19T11:12:55;100639.19;;;28.57;64.13
46211;BME280;52144;48.040;-1.594;2023-06-19T11:15:29;100634.25;;;28.67;59.63
46211;BME280;52144;48.040;-1.594;2023-06-19T11:17:58;100632.84;;;28.12;60.44
46211;BME280;52144;48.040;-1.594;2023-06-19T11:20:26;100630.75;;;28.14;59.53
46211;BME280;52144;48.040;-1.594;2023-06-19T11:22:55;100623.84;;;28.18;59.69
46211;BME280;52144;48.040;-1.594;2023-06-19T11:25:33;100621.31;;;28.16;60.63
46211;BME280;52144;48.040;-1.594;2023-06-19T11:28:03;100621.44;;;28.23;59.32
46211;BME280;52144;48.040;-1.594;2023-06-19T11:30:32;100614.78;;;28.32;59.36
46211;BME280;52144;48.040;-1.594;2023-06-19T11:33:00;100614.03;;;28.38;57.70
46211;BME280;52144;48.040;-1.594;2023-06-19T11:35:33;100604.63;;;28.56;57.53
46211;BME280;52144;48.040;-1.594;2023-06-19T11:38:02;100604.03;;;28.60;58.76
46211;BME280;52144;48.040;-1.594;2023-06-19T11:40:39;100602.69;;;28.71;58.09
46211;BME280;52144;48.040;-1.594;2023-06-19T11:43:08;100600.50;;;28.81;55.60
46211;BME280;52144;48.040;-1.594;2023-06-19T11:45:45;100593.25;;;28.14;56.51
46211;BME280;52144;48.040;-1.594;2023-06-19T11:48:14;100581.97;;;27.79;58.90
46211;BME280;52144;48.040;-1.594;2023-06-19T11:50:41;100572.56;;;27.59;59.80
46211;BME280;52144;48.040;-1.594;2023-06-19T11:53:09;100567.84;;;28.20;57.44
46211;BME280;52144;48.040;-1.594;2023-06-19T11:55:37;100573.97;;;28.67;56.70
46211;BME280;52144;48.040;-1.594;2023-06-19T11:58:05;100564.00;;;29.17;56.34
46211;BME280;52144;48.040;-1.594;2023-06-19T12:00:35;100559.69;;;29.30;55.49
46211;BME280;52144;48.040;-1.594;2023-06-19T12:03:04;100552.19;;;29.67;53.67
46211;BME280;52144;48.040;-1.594;2023-06-19T12:05:32;100545.38;;;29.63;52.94
46211;BME280;52144;48.040;-1.594;2023-06-19T12:08:00;100551.78;;;29.70;53.37
46211;BME280;52144;48.040;-1.594;2023-06-19T12:10:29;100543.13;;;29.94;52.81
46211;BME280;52144;48.040;-1.594;2023-06-19T12:12:57;100530.03;;;29.96;56.48
46211;BME280;52144;48.040;-1.594;2023-06-19T12:15:25;100532.66;;;29.55;56.06
46211;BME280;52144;48.040;-1.594;2023-06-19T12:17:54;100528.56;;;29.01;56.85
46211;BME280;52144;48.040;-1.594;2023-06-19T12:20:24;100528.56;;;28.28;57.13
46211;BME280;52144;48.040;-1.594;2023-06-19T12:22:52;100524.41;;;28.02;57.12
46211;BME280;52144;48.040;-1.594;2023-06-19T12:25:20;100522.41;;;27.67;60.34
46211;BME280;52144;48.040;-1.594;2023-06-19T12:27:48;100522.00;;;28.59;58.13
46211;BME280;52144;48.040;-1.594;2023-06-19T12:30:21;100513.78;;;28.59;56.86
46211;BME280;52144;48.040;-1.594;2023-06-19T12:32:49;100510.28;;;29.08;59.87
46211;BME280;52144;48.040;-1.594;2023-06-19T12:35:18;100504.66;;;29.38;55.85
46211;BME280;52144;48.040;-1.594;2023-06-19T12:37:47;100502.06;;;28.87;54.71
46211;BME280;52144;48.040;-1.594;2023-06-19T12:40:15;100499.72;;;29.55;56.83
46211;BME280;52144;48.040;-1.594;2023-06-19T12:42:43;100500.22;;;29.93;54.31
46211;BME280;52144;48.040;-1.594;2023-06-19T12:45:12;100499.66;;;30.11;52.07